LIRFLICA

Guest
Details From LIRF - Roma Fiumicino Leonardo Da Vinci
To LICA - Lamezia Terme
Flight Number -
Tags Generated
Created
Modified
Stats Distance 252 nm / 467 km
Max Altitude 0 ft / 0 m
Waypoints 3
Social Downloads 15
Likes 0
Share VATSIM

Download

Looking for another format? Having issues loading an existing format? Contact us
Advertisement - Login to hide

Notes

Generated

Route

LIRF LMT31 LICA

ID Type Via Altitude Latitude Longitude Leg Dist Tot Dist Heading (true) Name
O LIRF APT - 0 ft / 0 m 41.79932˚ 12.23212˚ - 0 nm - -
LMT31 FIX - 0 ft / 0 m 39.06638˚ 16.02234˚ 238 nm 238 nm 132° / 135° -
O LICA APT - 0 ft / 0 m 38.90699˚ 16.22859˚ 13 nm 252 nm 135° / 135° -

Altitude Profile

Advertisement - Login to hide

Weather


0- 5 10 15 20 25 30 35+ Temperature / ° C

Clouds and Precipitation
Forecast for 2018-05-21 00:00 UTC. Updated 19 minutes ago

Ground ~20,000 ft ~40,000 ft Winds

LIRF

Details ICAO LIRF (FCO)
Name Roma Fiumicino Leonardo Da Vinci
Region Italy
Timezone Europe/Rome (UTC+2.0)
Stats Elevation 15 ft / 5 m (AMSL)
Location 41.810809° 12.250897°
Runways 3
Magnetic Variation 3.040° E

METAR

LIRF 202320Z 03005KT CAVOK 16/13 Q1012 NOSIG

Decode

TAF

TAF LIRF 201700Z 2018/2124 28010KT 9999 SCT030 BECMG 2018/2020 VRB05KT TEMPO BECMG 2110/2112 25010KT BECMG 2118/2120 VRB05KT

Decode

Departure Runways

ID Width Length Bearing (true) Bearing (mag) Surface Threshold Offset Overrun Length
07 148 ft / 45 m 10,835 ft / 3,302 m 69.67° 66.63° Asphalt 1,365 ft / 416 m 0 ft / 0 m
16L 197 ft / 60 m 12,832 ft / 3,911 m 162.67° 159.63° Asphalt 0 ft / 0 m 0 ft / 0 m
16R 197 ft / 60 m 12,822 ft / 3,908 m 162.66° 159.62° Asphalt 0 ft / 0 m 0 ft / 0 m
25 148 ft / 45 m 10,835 ft / 3,302 m 249.70° 246.66° Asphalt 0 ft / 0 m 0 ft / 0 m
34L 197 ft / 60 m 12,822 ft / 3,908 m 342.67° 339.63° Asphalt 1,053 ft / 321 m 0 ft / 0 m
34R 197 ft / 60 m 12,832 ft / 3,911 m 342.68° 339.64° Asphalt 0 ft / 0 m 0 ft / 0 m

LICA

Details ICAO LICA (SUF)
Name Lamezia Terme
Region Italy
Timezone Europe/Rome (UTC+2.0)
Stats Elevation 39 ft / 12 m (AMSL)
Location 38.905394° 16.242271°
Runways 1
Magnetic Variation 3.536° E

METAR

LICA 202250Z 06010KT CAVOK 19/13 Q1011

Decode

TAF

TAF LICA 201700Z 2018/2118 08012KT 9999 SCT030 BECMG 2020/2022 VRB05KT TEMPO 2021/2024 RA TEMPO 2111/2116 4000 TSRA

Decode

Destination Runways

ID Width Length Bearing (true) Bearing (mag) Surface Threshold Offset Overrun Length
10 148 ft / 45 m 7,858 ft / 2,395 m 98.54° 95.00° Asphalt 348 ft / 106 m 0 ft / 0 m
28 148 ft / 45 m 7,858 ft / 2,395 m 278.55° 275.01° Asphalt 351 ft / 107 m 0 ft / 0 m

Approach Navaids

Runway Type Ident Frequency Range Bearing (true) Bearing (mag) Slope Elevation
28 Localiser LAM 110.30 MHz 18 nm / 33 km 278.54° 275.00° - 21 ft / 6 m (AMSL)
28 Glidescope LAM 110.30 MHz 10 nm / 19 km 278.55° 275.01° 3.00° 21 ft / 6 m (AMSL)
28 DME LAM 110.30 MHz 25 nm / 46 km - - - 21 ft / 6 m (AMSL)

Popular Alternatives